createdAt,value
2019-01-04T00:01:52.201Z,60.50
2019-01-04T00:04:28.971Z,60.60
2019-01-04T00:07:01.172Z,60.50
2019-01-04T00:09:34.042Z,60.30
2019-01-04T00:12:07.900Z,60.60
2019-01-04T00:14:40.574Z,59.70
2019-01-04T00:17:14.095Z,59.20
2019-01-04T00:19:47.555Z,59.10
2019-01-04T00:22:20.029Z,59.20
2019-01-04T00:24:54.270Z,59.40
2019-01-04T00:27:26.407Z,59.70
2019-01-04T00:30:00.274Z,59.80
2019-01-04T00:32:34.814Z,59.60
2019-01-04T00:35:08.239Z,59.80
2019-01-04T00:37:41.760Z,59.80
2019-01-04T00:40:13.698Z,59.70
2019-01-04T00:42:47.466Z,59.00
2019-01-04T00:45:21.007Z,58.60
2019-01-04T00:47:53.116Z,58.30
2019-01-04T00:50:26.476Z,58.00
2019-01-04T00:52:58.384Z,58.20
2019-01-04T00:56:14.979Z,58.40
2019-01-04T01:00:05.093Z,58.00
2019-01-04T01:03:31.187Z,57.50
2019-01-04T01:07:18.239Z,57.30
2019-01-04T01:11:03.933Z,57.00
2019-01-04T01:14:45.483Z,56.80
2019-01-04T01:18:38.218Z,56.90
2019-01-04T01:22:16.254Z,56.70
2019-01-04T01:25:41.527Z,56.50
2019-01-04T01:29:17.153Z,56.10
2019-01-04T01:31:58.906Z,55.70
2019-01-04T01:35:26.666Z,55.40
2019-01-04T01:38:56.654Z,55.60
2019-01-04T01:42:40.604Z,55.40
2019-01-04T01:46:22.244Z,55.10
2019-01-04T01:50:15.336Z,54.70
2019-01-04T01:52:49.990Z,54.70
2019-01-04T01:55:22.952Z,54.60
2019-01-04T01:57:54.932Z,55.30
2019-01-04T02:00:29.917Z,55.80
2019-01-04T02:03:01.768Z,55.80
2019-01-04T02:05:33.883Z,56.00
2019-01-04T02:08:05.737Z,56.10
2019-01-04T02:10:38.480Z,56.10
2019-01-04T02:13:11.105Z,56.20
2019-01-04T02:15:43.373Z,56.10
2019-01-04T02:18:15.228Z,56.00
2019-01-04T02:20:47.175Z,55.60
2019-01-04T02:23:19.078Z,55.40
2019-01-04T02:25:50.967Z,55.30
2019-01-04T02:28:22.883Z,55.30
2019-01-04T02:30:54.783Z,55.30
2019-01-04T02:33:26.944Z,55.40
2019-01-04T02:35:58.819Z,55.50
2019-01-04T02:38:30.989Z,55.60
2019-01-04T02:41:03.096Z,56.20
2019-01-04T02:43:34.963Z,56.40
2019-01-04T02:46:07.823Z,56.90
2019-01-04T02:48:39.736Z,57.10
2019-01-04T02:51:11.605Z,57.10
2019-01-04T02:53:43.425Z,57.20
2019-01-04T02:56:15.335Z,57.30
2019-01-04T02:58:47.169Z,56.90
2019-01-04T03:01:18.917Z,56.40
2019-01-04T03:03:50.769Z,56.60
2019-01-04T03:06:22.633Z,56.20
2019-01-04T03:08:54.478Z,55.60
2019-01-04T03:11:26.345Z,55.40
2019-01-04T03:13:58.179Z,55.60
2019-01-04T03:16:30.070Z,55.50
2019-01-04T03:19:01.890Z,55.50
2019-01-04T03:21:33.771Z,55.10
2019-01-04T03:24:05.629Z,54.90
2019-01-04T03:26:37.513Z,54.60
2019-01-04T03:29:09.343Z,54.50
2019-01-04T03:31:41.232Z,54.50
2019-01-04T03:34:13.057Z,54.20
2019-01-04T03:36:44.960Z,54.00
2019-01-04T03:39:16.798Z,53.70
2019-01-04T03:41:48.771Z,53.40
2019-01-04T03:44:20.612Z,53.40
2019-01-04T03:46:52.497Z,53.50
2019-01-04T03:49:24.340Z,53.40
2019-01-04T03:51:56.214Z,53.40
2019-01-04T03:54:28.067Z,53.40
2019-01-04T03:56:59.976Z,53.80
2019-01-04T03:59:31.818Z,54.10
2019-01-04T04:02:03.803Z,54.10
2019-01-04T04:04:35.664Z,54.30
2019-01-04T04:07:07.660Z,54.40
2019-01-04T04:09:39.505Z,54.40
2019-01-04T04:12:11.618Z,54.40
2019-01-04T04:14:43.451Z,54.80
2019-01-04T04:17:15.466Z,55.20
2019-01-04T04:19:47.309Z,55.20
2019-01-04T04:22:19.173Z,55.30
2019-01-04T04:24:51.093Z,55.20
2019-01-04T04:27:23.265Z,55.50
2019-01-04T04:29:55.104Z,55.50
2019-01-04T04:32:27.071Z,55.50
2019-01-04T04:34:58.917Z,55.80
2019-01-04T04:37:30.793Z,55.80
2019-01-04T04:40:02.627Z,55.60
2019-01-04T04:42:34.490Z,55.50
2019-01-04T04:45:06.535Z,55.50
2019-01-04T04:47:38.601Z,55.70
2019-01-04T04:50:10.452Z,55.30
2019-01-04T04:52:42.295Z,55.20
2019-01-04T04:55:14.144Z,55.00
2019-01-04T04:57:46.076Z,54.90
2019-01-04T05:00:17.977Z,54.70
2019-01-04T05:02:49.967Z,54.60
2019-01-04T05:05:21.799Z,54.40
2019-01-04T05:07:54.039Z,54.00
2019-01-04T05:10:25.880Z,54.00
2019-01-04T05:12:57.849Z,54.00
2019-01-04T05:15:29.706Z,54.00
2019-01-04T05:18:01.613Z,54.50
2019-01-04T05:20:33.495Z,54.70
2019-01-04T05:23:05.338Z,54.70
2019-01-04T05:25:37.212Z,54.90
2019-01-04T05:28:09.054Z,54.80
2019-01-04T05:30:40.923Z,54.80
2019-01-04T05:33:12.759Z,55.10
2019-01-04T05:35:44.642Z,55.50
2019-01-04T05:38:16.473Z,55.70
2019-01-04T05:40:48.341Z,55.50
2019-01-04T05:43:20.172Z,55.60
2019-01-04T05:45:52.046Z,55.90
2019-01-04T05:48:23.890Z,55.80
2019-01-04T05:50:55.778Z,55.80
2019-01-04T05:53:27.607Z,55.90
2019-01-04T05:55:59.496Z,55.90
2019-01-04T05:58:31.322Z,55.80
2019-01-04T06:01:03.224Z,55.60
2019-01-04T06:03:35.079Z,55.40
2019-01-04T06:06:06.947Z,55.50
2019-01-04T06:08:38.796Z,55.40
2019-01-04T06:11:10.676Z,55.30
2019-01-04T06:13:42.526Z,55.30
2019-01-04T06:16:14.395Z,55.40
2019-01-04T06:18:46.277Z,55.60
2019-01-04T06:21:18.148Z,55.80
2019-01-04T06:23:49.981Z,55.60
2019-01-04T06:26:21.913Z,55.60
2019-01-04T06:28:53.769Z,55.40
2019-01-04T06:31:25.638Z,55.50
2019-01-04T06:33:57.472Z,55.30
2019-01-04T06:36:29.618Z,55.20
2019-01-04T06:39:01.471Z,55.30
2019-01-04T06:41:33.533Z,55.50
2019-01-04T06:44:05.365Z,55.30
2019-01-04T06:47:13.492Z,55.20
2019-01-04T06:49:45.675Z,55.20
2019-01-04T06:52:17.961Z,55.10
2019-01-04T06:55:45.450Z,55.70
2019-01-04T06:58:17.359Z,56.00
2019-01-04T07:00:49.216Z,56.20
2019-01-04T07:03:21.087Z,56.10
2019-01-04T07:05:53.157Z,56.10
2019-01-04T07:08:25.206Z,56.20
2019-01-04T07:10:57.051Z,56.20
2019-01-04T07:13:28.916Z,56.30
2019-01-04T07:16:00.780Z,56.20
2019-01-04T07:18:32.720Z,56.20
2019-01-04T07:21:04.547Z,56.10
2019-01-04T07:23:36.426Z,55.80
2019-01-04T07:26:08.282Z,55.50
2019-01-04T07:28:40.155Z,55.50
2019-01-04T07:31:11.983Z,55.30
2019-01-04T07:33:44.311Z,55.10
2019-01-04T07:36:16.152Z,55.10
2019-01-04T07:38:48.304Z,54.90
2019-01-04T07:41:20.279Z,54.80
2019-01-04T07:43:52.143Z,55.00
2019-01-04T07:46:23.987Z,55.00
2019-01-04T07:48:55.873Z,55.20
2019-01-04T07:51:27.726Z,54.90
2019-01-04T07:54:00.497Z,54.30
2019-01-04T07:56:33.496Z,53.90
2019-01-04T07:59:05.449Z,53.70
2019-01-04T08:01:37.327Z,53.70
2019-01-04T08:04:09.217Z,53.50
2019-01-04T08:06:41.077Z,53.30
2019-01-04T08:09:12.955Z,52.90
2019-01-04T08:11:44.827Z,52.90
2019-01-04T08:14:16.695Z,52.40
2019-01-04T08:16:48.540Z,52.50
2019-01-04T08:19:20.419Z,52.70
2019-01-04T08:21:52.243Z,52.30
2019-01-04T08:24:24.197Z,52.00
2019-01-04T08:26:56.035Z,51.80
2019-01-04T08:29:27.911Z,52.10
2019-01-04T08:31:59.820Z,52.30
2019-01-04T08:34:31.675Z,52.20
2019-01-04T08:37:03.534Z,52.60
2019-01-04T08:39:35.410Z,52.60
2019-01-04T08:42:07.242Z,52.20
2019-01-04T08:44:39.104Z,52.30
2019-01-04T08:47:10.953Z,52.10
2019-01-04T08:49:42.840Z,52.10
2019-01-04T08:52:14.683Z,52.00
2019-01-04T08:54:46.561Z,51.50
2019-01-04T08:57:18.431Z,49.90
2019-01-04T08:59:50.295Z,50.50
2019-01-04T09:02:22.350Z,50.10
2019-01-04T09:04:54.231Z,50.00
2019-01-04T09:07:26.947Z,49.40
2019-01-04T09:09:58.839Z,49.50
2019-01-04T09:12:30.694Z,49.40
2019-01-04T09:15:02.556Z,49.20
2019-01-04T09:17:34.399Z,48.50
2019-01-04T09:20:08.673Z,47.40
2019-01-04T09:22:41.221Z,47.50
2019-01-04T09:25:15.011Z,47.60
2019-01-04T09:27:46.916Z,47.90
2019-01-04T09:30:19.385Z,48.00
2019-01-04T09:32:51.208Z,48.20
2019-01-04T09:35:23.734Z,48.00
2019-01-04T09:37:55.868Z,48.00
2019-01-04T09:40:31.669Z,47.60
2019-01-04T09:43:03.577Z,47.30
2019-01-04T09:45:35.409Z,47.40
2019-01-04T09:48:07.468Z,48.00
2019-01-04T09:50:39.342Z,48.30
2019-01-04T09:53:12.098Z,48.40
2019-01-04T09:55:44.010Z,47.60
2019-01-04T09:58:15.891Z,47.40
2019-01-04T10:00:47.907Z,47.20
2019-01-04T10:03:19.806Z,47.70
2019-01-04T10:05:51.702Z,47.30
2019-01-04T10:08:23.680Z,47.20
2019-01-04T10:10:55.649Z,47.90
2019-01-04T10:13:27.493Z,48.50
2019-01-04T10:15:59.495Z,48.80
2019-01-04T10:18:31.374Z,48.80
2019-01-04T10:21:03.267Z,48.40
2019-01-04T10:23:35.120Z,47.80
2019-01-04T10:26:07.144Z,48.20
2019-01-04T10:28:39.073Z,48.00
2019-01-04T10:31:12.200Z,48.20
2019-01-04T10:33:44.103Z,49.00
2019-01-04T10:36:15.985Z,47.70
2019-01-04T10:38:47.854Z,47.50
2019-01-04T10:41:19.954Z,46.60
2019-01-04T10:43:54.038Z,47.00
2019-01-04T10:46:26.684Z,46.40
2019-01-04T10:48:58.525Z,46.10
2019-01-04T10:51:30.410Z,44.70
2019-01-04T10:54:02.270Z,45.60
2019-01-04T10:56:34.318Z,45.10
2019-01-04T10:59:06.187Z,45.00
2019-01-04T11:01:38.205Z,44.50
2019-01-04T11:04:10.336Z,44.40
2019-01-04T11:06:42.718Z,44.60
2019-01-04T11:09:14.567Z,44.70
2019-01-04T11:11:46.550Z,45.20
2019-01-04T11:14:18.401Z,45.90
2019-01-04T11:16:50.358Z,46.50
2019-01-04T11:19:22.262Z,47.20
2019-01-04T11:22:32.352Z,47.90
2019-01-04T11:26:25.652Z,48.20
2019-01-04T11:29:28.435Z,48.90
2019-01-04T11:32:32.702Z,49.40
2019-01-04T11:35:47.000Z,49.50
2019-01-04T11:39:12.235Z,50.20
2019-01-04T11:43:10.766Z,50.20
2019-01-04T11:46:39.092Z,50.40
2019-01-04T11:50:38.232Z,50.50
2019-01-04T11:53:16.561Z,50.10
2019-01-04T11:55:48.415Z,48.80
2019-01-04T11:58:20.329Z,47.60
2019-01-04T12:00:52.179Z,47.40
2019-01-04T12:03:24.799Z,48.30
2019-01-04T12:05:56.631Z,49.20
2019-01-04T12:08:28.521Z,48.50
2019-01-04T12:11:00.387Z,49.20
2019-01-04T12:13:32.270Z,48.90
2019-01-04T12:16:04.119Z,49.30
2019-01-04T12:18:35.981Z,50.10
2019-01-04T12:21:07.841Z,50.00
2019-01-04T12:23:40.174Z,50.20
2019-01-04T12:26:12.030Z,50.30
2019-01-04T12:28:43.914Z,49.60
2019-01-04T12:31:15.780Z,49.80
2019-01-04T12:33:47.667Z,50.50
2019-01-04T12:36:19.542Z,51.00
2019-01-04T12:38:51.418Z,50.80
2019-01-04T12:41:23.272Z,51.20
2019-01-04T12:43:55.153Z,51.80
2019-01-04T12:46:27.103Z,51.40
2019-01-04T12:48:59.133Z,51.20
2019-01-04T12:51:30.996Z,52.20
2019-01-04T12:54:02.868Z,52.90
2019-01-04T12:56:34.716Z,52.70
2019-01-04T12:59:06.622Z,52.00
2019-01-04T13:01:38.469Z,51.90
2019-01-04T13:04:10.341Z,52.90
2019-01-04T13:06:42.199Z,52.70
2019-01-04T13:09:14.074Z,52.40
2019-01-04T13:11:46.005Z,53.50
2019-01-04T13:14:17.900Z,54.40
2019-01-04T13:16:49.745Z,54.50
2019-01-04T13:19:25.672Z,54.60
2019-01-04T13:21:55.278Z,53.70
2019-01-04T13:24:27.475Z,53.80
2019-01-04T13:26:59.485Z,54.50
2019-01-04T13:29:31.361Z,54.60
2019-01-04T13:32:03.477Z,54.30
2019-01-04T13:34:35.356Z,53.80
2019-01-04T13:37:07.224Z,54.00
2019-01-04T13:39:39.100Z,54.00
2019-01-04T13:42:10.931Z,53.80
2019-01-04T13:44:42.889Z,53.90
2019-01-04T13:47:14.742Z,53.30
2019-01-04T13:49:46.906Z,53.30
2019-01-04T13:52:18.747Z,53.70
2019-01-04T13:54:50.945Z,53.60
2019-01-04T13:57:22.844Z,54.10
2019-01-04T13:59:54.919Z,54.50
2019-01-04T14:02:26.765Z,54.70
2019-01-04T14:04:58.987Z,54.80
2019-01-04T14:07:30.832Z,54.70
2019-01-04T14:10:02.709Z,54.70
2019-01-04T14:12:34.622Z,55.10
2019-01-04T14:15:07.401Z,55.40
2019-01-04T14:17:39.236Z,55.90
2019-01-04T14:20:11.107Z,56.20
2019-01-04T14:22:42.967Z,55.90
2019-01-04T14:25:14.825Z,56.00
2019-01-04T14:27:46.672Z,55.80
2019-01-04T14:30:18.541Z,56.10
2019-01-04T14:32:50.390Z,56.00
2019-01-04T14:35:22.253Z,55.70
2019-01-04T14:37:54.094Z,56.30
2019-01-04T14:40:25.986Z,56.20
2019-01-04T14:42:57.822Z,56.20
2019-01-04T14:45:29.698Z,55.80
2019-01-04T14:48:01.539Z,56.60
2019-01-04T14:50:33.559Z,57.20
2019-01-04T14:53:05.417Z,57.60
2019-01-04T14:55:37.291Z,57.80
2019-01-04T14:58:09.186Z,57.80
2019-01-04T15:00:41.056Z,57.90
2019-01-04T15:03:12.896Z,58.00
2019-01-04T15:05:50.329Z,57.70
2019-01-04T15:08:18.511Z,57.50
2019-01-04T15:10:50.529Z,57.90
2019-01-04T15:13:22.371Z,57.70
2019-01-04T15:15:54.366Z,57.70
2019-01-04T15:18:26.202Z,57.10
2019-01-04T15:20:58.071Z,56.40
2019-01-04T15:23:29.936Z,56.50
2019-01-04T15:26:01.807Z,56.30
2019-01-04T15:28:33.657Z,55.60
2019-01-04T15:31:05.547Z,54.70
2019-01-04T15:33:37.406Z,54.90
2019-01-04T15:36:09.286Z,54.80
2019-01-04T15:38:41.243Z,54.00
2019-01-04T15:41:13.295Z,54.30
2019-01-04T15:43:45.132Z,54.40
2019-01-04T15:46:17.100Z,54.50
2019-01-04T15:48:48.941Z,54.50
2019-01-04T15:51:20.835Z,54.50
2019-01-04T15:53:52.671Z,54.50
2019-01-04T15:56:24.557Z,54.40
2019-01-04T15:58:56.423Z,54.30
2019-01-04T16:01:28.300Z,54.50
2019-01-04T16:04:00.136Z,54.10
2019-01-04T16:06:32.009Z,54.10
2019-01-04T16:09:05.201Z,54.10
2019-01-04T16:11:37.224Z,54.20
2019-01-04T16:14:09.061Z,54.40
2019-01-04T16:16:40.927Z,54.40
2019-01-04T16:19:12.801Z,54.30
2019-01-04T16:21:44.679Z,54.60
2019-01-04T16:24:16.502Z,54.70
2019-01-04T16:26:48.382Z,54.70
2019-01-04T16:29:20.222Z,54.80
2019-01-04T16:31:52.288Z,55.10
2019-01-04T16:34:24.138Z,55.80
2019-01-04T16:36:56.584Z,56.90
2019-01-04T16:39:28.440Z,56.20
2019-01-04T16:42:00.303Z,55.90
2019-01-04T16:44:32.184Z,55.90
2019-01-04T16:47:04.076Z,56.40
2019-01-04T16:49:38.986Z,56.60
2019-01-04T16:52:10.950Z,56.50
2019-01-04T16:54:42.803Z,57.20
2019-01-04T16:57:14.671Z,57.40
2019-01-04T16:59:46.615Z,57.50
2019-01-04T17:02:18.488Z,57.40
2019-01-04T17:04:50.324Z,57.20
2019-01-04T17:07:22.205Z,57.40
2019-01-04T17:09:54.159Z,57.60
2019-01-04T17:12:26.030Z,57.30
2019-01-04T17:14:57.896Z,56.90
2019-01-04T17:17:29.767Z,57.10
2019-01-04T17:20:01.631Z,56.80
2019-01-04T17:22:33.494Z,56.20
2019-01-04T17:25:06.044Z,55.90
2019-01-04T17:27:37.930Z,55.50
2019-01-04T17:30:10.513Z,55.10
2019-01-04T17:32:42.382Z,55.40
2019-01-04T17:35:14.225Z,55.60
2019-01-04T17:37:46.158Z,55.80
2019-01-04T17:40:18.003Z,56.00
2019-01-04T17:42:50.228Z,56.90
2019-01-04T17:45:22.097Z,57.00
2019-01-04T17:47:54.302Z,58.00
2019-01-04T17:50:26.231Z,58.20
2019-01-04T17:52:58.115Z,58.50
2019-01-04T17:55:29.969Z,58.90
2019-01-04T17:58:02.027Z,59.20
2019-01-04T18:00:33.877Z,59.10
2019-01-04T18:03:07.086Z,58.80
2019-01-04T18:05:39.002Z,58.60
2019-01-04T18:08:10.870Z,57.90
2019-01-04T18:10:42.779Z,58.10
2019-01-04T18:13:15.951Z,57.70
2019-01-04T18:15:47.826Z,58.40
2019-01-04T18:18:19.702Z,58.00
2019-01-04T18:20:51.555Z,57.90
2019-01-04T18:23:23.534Z,58.60
2019-01-04T18:25:55.387Z,58.60
2019-01-04T18:28:27.607Z,58.60
2019-01-04T18:30:59.455Z,58.70
2019-01-04T18:33:31.482Z,59.10
2019-01-04T18:36:03.649Z,58.60
2019-01-04T18:38:35.682Z,58.90
2019-01-04T18:41:07.783Z,59.00
2019-01-04T18:43:40.028Z,58.80
2019-01-04T18:46:12.232Z,58.80
2019-01-04T18:48:44.622Z,59.50
2019-01-04T18:51:16.961Z,60.20
2019-01-04T18:53:49.271Z,60.60
2019-01-04T18:56:21.155Z,61.10
2019-01-04T18:58:53.025Z,61.60
2019-01-04T19:01:24.871Z,62.20
2019-01-04T19:03:56.802Z,62.50
2019-01-04T19:06:31.274Z,63.10
2019-01-04T19:09:02.221Z,63.40
2019-01-04T19:11:34.121Z,63.40
2019-01-04T19:14:05.996Z,63.80
2019-01-04T19:16:37.824Z,64.10
2019-01-04T19:19:09.698Z,63.80
2019-01-04T19:21:41.536Z,63.50
2019-01-04T19:24:13.399Z,63.80
2019-01-04T19:26:45.245Z,63.90
2019-01-04T19:29:17.114Z,63.90
2019-01-04T19:31:49.220Z,64.10
2019-01-04T19:34:21.091Z,64.30
2019-01-04T19:36:52.924Z,65.00
2019-01-04T19:39:24.832Z,65.20
2019-01-04T19:41:56.673Z,65.50
2019-01-04T19:44:28.561Z,65.80
2019-01-04T19:47:00.399Z,65.80
2019-01-04T19:49:32.267Z,65.80
2019-01-04T19:52:04.105Z,66.40
2019-01-04T19:54:36.207Z,66.60
2019-01-04T19:57:08.232Z,66.50
2019-01-04T19:59:40.147Z,67.10
2019-01-04T20:02:11.993Z,67.50
2019-01-04T20:04:43.888Z,68.30
2019-01-04T20:08:27.691Z,68.40
2019-01-04T20:12:13.302Z,68.90
2019-01-04T20:15:49.273Z,68.50
2019-01-04T20:18:42.166Z,68.30
2019-01-04T20:21:41.877Z,67.70
2019-01-04T20:24:43.624Z,67.60
2019-01-04T20:27:34.787Z,67.10
2019-01-04T20:30:24.443Z,66.90
2019-01-04T20:33:22.099Z,67.00
2019-01-04T20:36:12.934Z,66.90
2019-01-04T20:39:02.349Z,67.40
2019-01-04T20:41:55.799Z,67.60
2019-01-04T20:44:47.271Z,67.80
2019-01-04T20:47:37.513Z,67.60
2019-01-04T20:50:26.561Z,67.20
2019-01-04T20:53:21.524Z,67.30
2019-01-04T20:56:11.220Z,67.00
2019-01-04T20:59:15.303Z,66.30
2019-01-04T21:02:05.637Z,67.20
2019-01-04T21:04:58.188Z,66.30
2019-01-04T21:07:45.048Z,66.50
2019-01-04T21:10:42.643Z,67.30
2019-01-04T21:13:32.898Z,67.80
2019-01-04T21:16:25.647Z,67.00
2019-01-04T21:19:15.820Z,67.10
2019-01-04T21:22:16.681Z,66.40
2019-01-04T21:25:22.525Z,66.50
2019-01-04T21:28:14.793Z,65.60
2019-01-04T21:31:20.347Z,66.00
2019-01-04T21:34:10.049Z,65.40
2019-01-04T21:37:00.137Z,65.80
2019-01-04T21:40:06.753Z,65.90
2019-01-04T21:43:00.815Z,66.20
2019-01-04T21:45:50.924Z,66.60
2019-01-04T21:48:41.960Z,66.50
2019-01-04T21:51:39.211Z,66.70
2019-01-04T21:54:29.042Z,66.50
2019-01-04T21:57:18.615Z,66.80
2019-01-04T22:00:09.467Z,67.30
2019-01-04T22:02:58.684Z,67.40
2019-01-04T22:06:06.523Z,67.10
2019-01-04T22:08:56.064Z,66.60
2019-01-04T22:11:45.277Z,66.60
2019-01-04T22:14:44.354Z,66.30
2019-01-04T22:17:32.832Z,65.60
2019-01-04T22:20:24.495Z,65.50
2019-01-04T22:23:33.436Z,65.60
2019-01-04T22:26:27.358Z,66.00
2019-01-04T22:29:18.124Z,66.60
2019-01-04T22:32:21.187Z,67.40
2019-01-04T22:35:13.152Z,67.60
2019-01-04T22:38:15.255Z,68.00
2019-01-04T22:41:12.734Z,67.80
2019-01-04T22:44:02.060Z,68.00
2019-01-04T22:47:10.797Z,68.20
2019-01-04T22:50:07.926Z,68.20
2019-01-04T22:52:57.950Z,68.80
2019-01-04T22:55:44.791Z,68.70
2019-01-04T22:58:43.382Z,68.90
2019-01-04T23:01:34.521Z,68.20
2019-01-04T23:04:44.168Z,67.60
2019-01-04T23:07:33.822Z,66.60
2019-01-04T23:10:24.150Z,66.60
2019-01-04T23:13:18.854Z,66.50
2019-01-04T23:16:13.156Z,66.70
2019-01-04T23:19:18.976Z,67.30
2019-01-04T23:22:34.245Z,67.50
2019-01-04T23:25:25.541Z,67.10
2019-01-04T23:28:25.552Z,66.60
2019-01-04T23:31:14.983Z,67.40
2019-01-04T23:34:04.549Z,67.60
2019-01-04T23:37:07.535Z,68.00
2019-01-04T23:40:08.222Z,67.60
2019-01-04T23:43:00.170Z,67.60
2019-01-04T23:45:47.799Z,67.10
2019-01-04T23:48:37.325Z,67.50
2019-01-04T23:51:30.622Z,68.10
2019-01-04T23:54:20.249Z,68.10
2019-01-04T23:57:14.927Z,68.20
